sensor_id;sensor_type;location;lat;lon;timestamp;P1;durP1;ratioP1;P2;durP2;ratioP2
31596;SDS011;18201;50.978;7.034;2022-12-18T00:00:00;33.38;;;23.48;;
31596;SDS011;18201;50.978;7.034;2022-12-18T00:00:31;34.17;;;22.73;;
31596;SDS011;18201;50.978;7.034;2022-12-18T00:01:04;39.35;;;23.30;;
31596;SDS011;18201;50.978;7.034;2022-12-18T00:01:43;35.60;;;22.67;;
31596;SDS011;18201;50.978;7.034;2022-12-18T00:02:14;40.03;;;25.08;;
31596;SDS011;18201;50.978;7.034;2022-12-18T00:02:46;39.55;;;22.48;;
31596;SDS011;18201;50.978;7.034;2022-12-18T00:03:17;36.83;;;21.48;;
31596;SDS011;18201;50.978;7.034;2022-12-18T00:03:47;38.25;;;23.33;;
31596;SDS011;18201;50.978;7.034;2022-12-18T00:04:21;33.80;;;21.35;;
31596;SDS011;18201;50.978;7.034;2022-12-18T00:04:53;34.75;;;22.30;;
31596;SDS011;18201;50.978;7.034;2022-12-18T00:05:25;35.17;;;21.50;;
31596;SDS011;18201;50.978;7.034;2022-12-18T00:05:55;37.17;;;22.30;;
31596;SDS011;18201;50.978;7.034;2022-12-18T00:06:27;35.78;;;22.65;;
31596;SDS011;18201;50.978;7.034;2022-12-18T00:07:00;35.40;;;21.13;;
31596;SDS011;18201;50.978;7.034;2022-12-18T00:07:31;36.17;;;21.85;;
31596;SDS011;18201;50.978;7.034;2022-12-18T00:08:02;33.80;;;22.27;;
31596;SDS011;18201;50.978;7.034;2022-12-18T00:08:34;34.75;;;21.02;;
31596;SDS011;18201;50.978;7.034;2022-12-18T00:09:09;32.47;;;21.77;;
31596;SDS011;18201;50.978;7.034;2022-12-18T00:09:40;38.60;;;21.58;;
31596;SDS011;18201;50.978;7.034;2022-12-18T00:10:11;35.60;;;22.52;;
31596;SDS011;18201;50.978;7.034;2022-12-18T00:10:44;37.85;;;22.50;;
31596;SDS011;18201;50.978;7.034;2022-12-18T00:11:16;34.80;;;20.63;;
31596;SDS011;18201;50.978;7.034;2022-12-18T00:11:49;34.08;;;20.02;;
31596;SDS011;18201;50.978;7.034;2022-12-18T00:12:21;34.47;;;22.02;;
31596;SDS011;18201;50.978;7.034;2022-12-18T00:12:54;37.35;;;22.73;;
31596;SDS011;18201;50.978;7.034;2022-12-18T00:13:31;37.72;;;20.75;;
31596;SDS011;18201;50.978;7.034;2022-12-18T00:14:03;35.30;;;21.33;;
31596;SDS011;18201;50.978;7.034;2022-12-18T00:14:35;29.30;;;20.45;;
31596;SDS011;18201;50.978;7.034;2022-12-18T00:15:07;33.17;;;20.75;;
31596;SDS011;18201;50.978;7.034;2022-12-18T00:15:39;34.30;;;22.40;;
31596;SDS011;18201;50.978;7.034;2022-12-18T00:16:10;33.90;;;21.23;;
31596;SDS011;18201;50.978;7.034;2022-12-18T00:16:43;33.80;;;20.55;;
31596;SDS011;18201;50.978;7.034;2022-12-18T00:17:16;34.40;;;21.38;;
31596;SDS011;18201;50.978;7.034;2022-12-18T00:17:47;30.40;;;20.60;;
31596;SDS011;18201;50.978;7.034;2022-12-18T00:18:22;33.85;;;20.65;;
31596;SDS011;18201;50.978;7.034;2022-12-18T00:18:53;33.15;;;19.98;;
31596;SDS011;18201;50.978;7.034;2022-12-18T00:19:28;33.60;;;20.42;;
31596;SDS011;18201;50.978;7.034;2022-12-18T00:20:00;30.58;;;19.73;;
31596;SDS011;18201;50.978;7.034;2022-12-18T00:20:35;33.97;;;22.27;;
31596;SDS011;18201;50.978;7.034;2022-12-18T00:21:07;36.08;;;20.45;;
31596;SDS011;18201;50.978;7.034;2022-12-18T00:21:41;33.40;;;20.85;;
31596;SDS011;18201;50.978;7.034;2022-12-18T00:22:12;33.75;;;20.92;;
31596;SDS011;18201;50.978;7.034;2022-12-18T00:22:43;31.77;;;21.23;;
31596;SDS011;18201;50.978;7.034;2022-12-18T00:23:15;32.55;;;21.33;;
31596;SDS011;18201;50.978;7.034;2022-12-18T00:23:46;32.67;;;20.95;;
31596;SDS011;18201;50.978;7.034;2022-12-18T00:24:18;35.15;;;21.08;;
31596;SDS011;18201;50.978;7.034;2022-12-18T00:24:53;31.52;;;21.92;;
31596;SDS011;18201;50.978;7.034;2022-12-18T00:25:24;31.08;;;19.48;;
31596;SDS011;18201;50.978;7.034;2022-12-18T00:25:58;32.83;;;21.00;;
31596;SDS011;18201;50.978;7.034;2022-12-18T00:26:31;36.25;;;21.65;;
31596;SDS011;18201;50.978;7.034;2022-12-18T00:27:04;35.97;;;21.90;;
31596;SDS011;18201;50.978;7.034;2022-12-18T00:27:41;35.25;;;21.45;;
31596;SDS011;18201;50.978;7.034;2022-12-18T00:28:12;32.63;;;20.48;;
31596;SDS011;18201;50.978;7.034;2022-12-18T00:28:44;32.20;;;21.55;;
31596;SDS011;18201;50.978;7.034;2022-12-18T00:29:16;34.55;;;21.50;;
31596;SDS011;18201;50.978;7.034;2022-12-18T00:29:47;34.63;;;21.35;;
31596;SDS011;18201;50.978;7.034;2022-12-18T00:30:19;35.25;;;22.35;;
31596;SDS011;18201;50.978;7.034;2022-12-18T00:30:50;29.77;;;19.90;;
31596;SDS011;18201;50.978;7.034;2022-12-18T00:31:22;36.42;;;21.38;;
31596;SDS011;18201;50.978;7.034;2022-12-18T00:31:55;35.38;;;21.05;;
31596;SDS011;18201;50.978;7.034;2022-12-18T00:32:26;38.17;;;21.48;;
31596;SDS011;18201;50.978;7.034;2022-12-18T00:32:56;31.85;;;20.80;;
31596;SDS011;18201;50.978;7.034;2022-12-18T00:33:28;33.10;;;21.48;;
31596;SDS011;18201;50.978;7.034;2022-12-18T00:33:59;32.95;;;20.00;;
31596;SDS011;18201;50.978;7.034;2022-12-18T00:34:31;36.70;;;22.30;;
31596;SDS011;18201;50.978;7.034;2022-12-18T00:35:03;32.15;;;21.30;;
31596;SDS011;18201;50.978;7.034;2022-12-18T00:35:34;33.22;;;20.85;;
31596;SDS011;18201;50.978;7.034;2022-12-18T00:36:06;34.08;;;20.70;;
31596;SDS011;18201;50.978;7.034;2022-12-18T00:36:40;30.85;;;20.40;;
31596;SDS011;18201;50.978;7.034;2022-12-18T00:37:12;30.50;;;20.48;;
31596;SDS011;18201;50.978;7.034;2022-12-18T00:37:42;33.90;;;21.42;;
31596;SDS011;18201;50.978;7.034;2022-12-18T00:38:14;33.08;;;22.15;;
31596;SDS011;18201;50.978;7.034;2022-12-18T00:38:45;35.42;;;21.65;;
31596;SDS011;18201;50.978;7.034;2022-12-18T00:39:17;35.65;;;21.50;;
31596;SDS011;18201;50.978;7.034;2022-12-18T00:39:49;37.03;;;21.77;;
31596;SDS011;18201;50.978;7.034;2022-12-18T00:40:20;35.85;;;21.25;;
31596;SDS011;18201;50.978;7.034;2022-12-18T00:40:50;33.75;;;21.27;;
31596;SDS011;18201;50.978;7.034;2022-12-18T00:41:24;36.75;;;22.05;;
31596;SDS011;18201;50.978;7.034;2022-12-18T00:42:14;33.58;;;21.35;;
31596;SDS011;18201;50.978;7.034;2022-12-18T00:43:04;30.35;;;19.30;;
31596;SDS011;18201;50.978;7.034;2022-12-18T00:43:35;34.17;;;21.05;;
31596;SDS011;18201;50.978;7.034;2022-12-18T00:44:06;35.47;;;21.08;;
31596;SDS011;18201;50.978;7.034;2022-12-18T00:44:39;33.28;;;21.85;;
31596;SDS011;18201;50.978;7.034;2022-12-18T00:45:11;32.83;;;20.60;;
31596;SDS011;18201;50.978;7.034;2022-12-18T00:45:42;32.38;;;20.67;;
31596;SDS011;18201;50.978;7.034;2022-12-18T00:46:13;34.33;;;21.48;;
31596;SDS011;18201;50.978;7.034;2022-12-18T00:46:44;30.60;;;21.27;;
31596;SDS011;18201;50.978;7.034;2022-12-18T00:47:16;33.15;;;22.10;;
31596;SDS011;18201;50.978;7.034;2022-12-18T00:47:47;31.00;;;19.90;;
31596;SDS011;18201;50.978;7.034;2022-12-18T00:48:18;36.55;;;21.33;;
31596;SDS011;18201;50.978;7.034;2022-12-18T00:48:50;39.40;;;22.27;;
31596;SDS011;18201;50.978;7.034;2022-12-18T00:49:21;31.67;;;20.85;;
31596;SDS011;18201;50.978;7.034;2022-12-18T00:49:52;32.58;;;20.25;;
31596;SDS011;18201;50.978;7.034;2022-12-18T00:50:24;32.15;;;20.65;;
31596;SDS011;18201;50.978;7.034;2022-12-18T00:50:56;33.15;;;19.88;;
31596;SDS011;18201;50.978;7.034;2022-12-18T00:51:27;32.45;;;21.38;;
31596;SDS011;18201;50.978;7.034;2022-12-18T00:51:58;29.92;;;20.67;;
31596;SDS011;18201;50.978;7.034;2022-12-18T00:52:30;35.03;;;19.63;;
31596;SDS011;18201;50.978;7.034;2022-12-18T00:53:01;33.83;;;21.40;;
31596;SDS011;18201;50.978;7.034;2022-12-18T00:53:32;32.83;;;20.38;;
31596;SDS011;18201;50.978;7.034;2022-12-18T00:54:03;31.50;;;20.23;;
31596;SDS011;18201;50.978;7.034;2022-12-18T00:54:34;35.05;;;21.67;;
31596;SDS011;18201;50.978;7.034;2022-12-18T00:55:06;32.28;;;21.08;;
31596;SDS011;18201;50.978;7.034;2022-12-18T00:55:39;30.80;;;20.02;;
31596;SDS011;18201;50.978;7.034;2022-12-18T00:56:10;34.72;;;21.05;;
31596;SDS011;18201;50.978;7.034;2022-12-18T00:56:41;33.33;;;21.50;;
31596;SDS011;18201;50.978;7.034;2022-12-18T00:57:13;31.70;;;21.45;;
31596;SDS011;18201;50.978;7.034;2022-12-18T00:57:44;34.15;;;21.60;;
31596;SDS011;18201;50.978;7.034;2022-12-18T00:58:16;32.75;;;20.75;;
31596;SDS011;18201;50.978;7.034;2022-12-18T00:58:47;37.47;;;21.65;;
31596;SDS011;18201;50.978;7.034;2022-12-18T00:59:19;34.00;;;21.30;;
31596;SDS011;18201;50.978;7.034;2022-12-18T00:59:50;34.28;;;21.80;;
31596;SDS011;18201;50.978;7.034;2022-12-18T01:00:21;34.55;;;20.38;;
31596;SDS011;18201;50.978;7.034;2022-12-18T01:00:52;33.13;;;21.45;;
31596;SDS011;18201;50.978;7.034;2022-12-18T01:01:24;37.53;;;20.98;;
31596;SDS011;18201;50.978;7.034;2022-12-18T01:01:55;34.78;;;21.65;;
31596;SDS011;18201;50.978;7.034;2022-12-18T01:02:26;34.47;;;22.50;;
31596;SDS011;18201;50.978;7.034;2022-12-18T01:02:57;35.40;;;22.23;;
31596;SDS011;18201;50.978;7.034;2022-12-18T01:03:29;33.72;;;21.30;;
31596;SDS011;18201;50.978;7.034;2022-12-18T01:04:00;30.63;;;20.45;;
31596;SDS011;18201;50.978;7.034;2022-12-18T01:04:32;31.23;;;20.25;;
31596;SDS011;18201;50.978;7.034;2022-12-18T01:05:05;34.42;;;20.50;;
31596;SDS011;18201;50.978;7.034;2022-12-18T01:05:38;31.98;;;20.30;;
31596;SDS011;18201;50.978;7.034;2022-12-18T01:06:10;31.00;;;20.80;;
31596;SDS011;18201;50.978;7.034;2022-12-18T01:06:42;33.03;;;20.67;;
31596;SDS011;18201;50.978;7.034;2022-12-18T01:07:14;35.45;;;21.35;;
31596;SDS011;18201;50.978;7.034;2022-12-18T01:07:44;37.45;;;21.58;;
31596;SDS011;18201;50.978;7.034;2022-12-18T01:08:15;31.88;;;21.30;;
31596;SDS011;18201;50.978;7.034;2022-12-18T01:08:48;35.13;;;22.30;;
31596;SDS011;18201;50.978;7.034;2022-12-18T01:09:18;33.60;;;21.17;;
31596;SDS011;18201;50.978;7.034;2022-12-18T01:09:49;35.15;;;22.50;;
31596;SDS011;18201;50.978;7.034;2022-12-18T01:10:21;34.03;;;20.35;;
31596;SDS011;18201;50.978;7.034;2022-12-18T01:10:53;37.05;;;20.90;;
31596;SDS011;18201;50.978;7.034;2022-12-18T01:11:24;34.03;;;21.35;;
31596;SDS011;18201;50.978;7.034;2022-12-18T01:11:55;37.35;;;22.42;;
31596;SDS011;18201;50.978;7.034;2022-12-18T01:12:26;34.92;;;21.05;;
31596;SDS011;18201;50.978;7.034;2022-12-18T01:12:57;30.85;;;21.05;;
31596;SDS011;18201;50.978;7.034;2022-12-18T01:13:30;35.95;;;20.75;;
31596;SDS011;18201;50.978;7.034;2022-12-18T01:14:01;34.95;;;21.33;;
31596;SDS011;18201;50.978;7.034;2022-12-18T01:14:32;33.40;;;21.42;;
31596;SDS011;18201;50.978;7.034;2022-12-18T01:15:05;33.75;;;20.95;;
31596;SDS011;18201;50.978;7.034;2022-12-18T01:15:36;33.28;;;21.02;;
31596;SDS011;18201;50.978;7.034;2022-12-18T01:16:08;36.10;;;22.42;;
31596;SDS011;18201;50.978;7.034;2022-12-18T01:16:41;33.67;;;22.05;;
31596;SDS011;18201;50.978;7.034;2022-12-18T01:17:12;33.95;;;20.67;;
31596;SDS011;18201;50.978;7.034;2022-12-18T01:17:44;31.30;;;20.25;;
31596;SDS011;18201;50.978;7.034;2022-12-18T01:18:15;36.45;;;21.73;;
31596;SDS011;18201;50.978;7.034;2022-12-18T01:18:49;40.53;;;22.55;;
31596;SDS011;18201;50.978;7.034;2022-12-18T01:19:22;32.05;;;20.40;;
31596;SDS011;18201;50.978;7.034;2022-12-18T01:19:53;40.58;;;23.80;;
31596;SDS011;18201;50.978;7.034;2022-12-18T01:20:24;35.95;;;21.92;;
31596;SDS011;18201;50.978;7.034;2022-12-18T01:20:56;40.95;;;23.08;;
31596;SDS011;18201;50.978;7.034;2022-12-18T01:21:27;34.75;;;22.02;;
31596;SDS011;18201;50.978;7.034;2022-12-18T01:21:58;34.90;;;21.98;;
31596;SDS011;18201;50.978;7.034;2022-12-18T01:22:30;38.05;;;22.73;;
31596;SDS011;18201;50.978;7.034;2022-12-18T01:23:04;41.47;;;23.70;;
31596;SDS011;18201;50.978;7.034;2022-12-18T01:23:35;40.95;;;22.38;;
31596;SDS011;18201;50.978;7.034;2022-12-18T01:24:09;42.08;;;23.48;;
31596;SDS011;18201;50.978;7.034;2022-12-18T01:24:41;42.08;;;23.80;;
31596;SDS011;18201;50.978;7.034;2022-12-18T01:25:12;40.38;;;23.70;;
31596;SDS011;18201;50.978;7.034;2022-12-18T01:25:43;38.83;;;23.70;;
31596;SDS011;18201;50.978;7.034;2022-12-18T01:26:15;41.10;;;26.02;;
31596;SDS011;18201;50.978;7.034;2022-12-18T01:26:46;37.85;;;23.92;;
31596;SDS011;18201;50.978;7.034;2022-12-18T01:27:17;41.88;;;24.00;;
31596;SDS011;18201;50.978;7.034;2022-12-18T01:27:49;43.25;;;23.63;;
31596;SDS011;18201;50.978;7.034;2022-12-18T01:28:20;39.03;;;24.15;;
31596;SDS011;18201;50.978;7.034;2022-12-18T01:28:53;42.53;;;24.13;;
31596;SDS011;18201;50.978;7.034;2022-12-18T01:29:25;46.15;;;25.50;;
31596;SDS011;18201;50.978;7.034;2022-12-18T01:29:56;43.42;;;25.15;;
31596;SDS011;18201;50.978;7.034;2022-12-18T01:30:27;40.25;;;23.90;;
31596;SDS011;18201;50.978;7.034;2022-12-18T01:31:08;41.47;;;25.75;;
31596;SDS011;18201;50.978;7.034;2022-12-18T01:31:41;42.03;;;24.42;;
31596;SDS011;18201;50.978;7.034;2022-12-18T01:32:12;45.42;;;24.20;;
31596;SDS011;18201;50.978;7.034;2022-12-18T01:32:43;42.05;;;24.15;;
31596;SDS011;18201;50.978;7.034;2022-12-18T01:33:15;40.05;;;23.77;;
31596;SDS011;18201;50.978;7.034;2022-12-18T01:33:46;42.25;;;24.35;;
31596;SDS011;18201;50.978;7.034;2022-12-18T01:34:20;41.15;;;24.25;;
31596;SDS011;18201;50.978;7.034;2022-12-18T01:34:52;41.97;;;23.33;;
31596;SDS011;18201;50.978;7.034;2022-12-18T01:35:23;41.08;;;23.75;;
31596;SDS011;18201;50.978;7.034;2022-12-18T01:35:53;51.05;;;25.38;;
31596;SDS011;18201;50.978;7.034;2022-12-18T01:36:25;43.17;;;24.83;;
31596;SDS011;18201;50.978;7.034;2022-12-18T01:36:58;41.22;;;23.00;;
31596;SDS011;18201;50.978;7.034;2022-12-18T01:37:32;36.13;;;22.67;;
31596;SDS011;18201;50.978;7.034;2022-12-18T01:38:03;41.42;;;23.35;;
31596;SDS011;18201;50.978;7.034;2022-12-18T01:38:33;38.47;;;23.17;;
31596;SDS011;18201;50.978;7.034;2022-12-18T01:39:07;37.95;;;22.98;;
31596;SDS011;18201;50.978;7.034;2022-12-18T01:39:40;39.40;;;22.45;;
31596;SDS011;18201;50.978;7.034;2022-12-18T01:40:12;41.45;;;23.05;;
31596;SDS011;18201;50.978;7.034;2022-12-18T01:40:43;38.60;;;23.38;;
31596;SDS011;18201;50.978;7.034;2022-12-18T01:41:14;38.28;;;25.27;;
31596;SDS011;18201;50.978;7.034;2022-12-18T01:41:47;44.03;;;24.20;;
31596;SDS011;18201;50.978;7.034;2022-12-18T01:42:36;34.17;;;22.33;;
31596;SDS011;18201;50.978;7.034;2022-12-18T01:43:08;38.72;;;23.40;;
31596;SDS011;18201;50.978;7.034;2022-12-18T01:43:44;44.65;;;24.08;;
31596;SDS011;18201;50.978;7.034;2022-12-18T01:45:31;34.40;;;21.15;;
31596;SDS011;18201;50.978;7.034;2022-12-18T01:46:03;35.53;;;21.63;;
31596;SDS011;18201;50.978;7.034;2022-12-18T01:46:34;34.15;;;20.90;;
31596;SDS011;18201;50.978;7.034;2022-12-18T01:47:05;42.08;;;22.65;;
31596;SDS011;18201;50.978;7.034;2022-12-18T01:47:40;32.78;;;21.63;;
31596;SDS011;18201;50.978;7.034;2022-12-18T01:48:14;34.85;;;22.95;;
31596;SDS011;18201;50.978;7.034;2022-12-18T01:48:46;35.83;;;24.25;;
31596;SDS011;18201;50.978;7.034;2022-12-18T01:49:19;41.42;;;22.00;;
31596;SDS011;18201;50.978;7.034;2022-12-18T01:49:50;35.50;;;22.48;;
31596;SDS011;18201;50.978;7.034;2022-12-18T01:50:23;36.53;;;21.83;;
31596;SDS011;18201;50.978;7.034;2022-12-18T01:50:57;41.25;;;22.65;;
31596;SDS011;18201;50.978;7.034;2022-12-18T01:51:32;33.85;;;21.50;;
31596;SDS011;18201;50.978;7.034;2022-12-18T01:52:03;30.95;;;20.92;;
31596;SDS011;18201;50.978;7.034;2022-12-18T01:52:34;37.15;;;23.13;;
31596;SDS011;18201;50.978;7.034;2022-12-18T01:53:14;42.25;;;22.48;;
31596;SDS011;18201;50.978;7.034;2022-12-18T01:53:47;34.90;;;21.25;;
31596;SDS011;18201;50.978;7.034;2022-12-18T01:54:19;36.22;;;22.20;;
31596;SDS011;18201;50.978;7.034;2022-12-18T01:54:50;35.67;;;22.92;;
31596;SDS011;18201;50.978;7.034;2022-12-18T01:55:23;40.20;;;23.80;;
31596;SDS011;18201;50.978;7.034;2022-12-18T01:55:56;35.42;;;22.98;;
31596;SDS011;18201;50.978;7.034;2022-12-18T01:56:29;37.15;;;22.23;;
31596;SDS011;18201;50.978;7.034;2022-12-18T01:57:00;39.15;;;22.13;;
31596;SDS011;18201;50.978;7.034;2022-12-18T01:57:31;36.67;;;22.83;;
31596;SDS011;18201;50.978;7.034;2022-12-18T01:58:04;33.90;;;21.77;;
31596;SDS011;18201;50.978;7.034;2022-12-18T01:58:37;36.60;;;22.42;;
31596;SDS011;18201;50.978;7.034;2022-12-18T01:59:14;31.98;;;21.13;;
31596;SDS011;18201;50.978;7.034;2022-12-18T01:59:47;33.72;;;20.65;;
31596;SDS011;18201;50.978;7.034;2022-12-18T02:00:22;35.63;;;22.13;;
31596;SDS011;18201;50.978;7.034;2022-12-18T02:00:56;30.95;;;21.63;;
31596;SDS011;18201;50.978;7.034;2022-12-18T02:01:28;34.28;;;21.10;;
31596;SDS011;18201;50.978;7.034;2022-12-18T02:02:00;36.17;;;21.48;;
31596;SDS011;18201;50.978;7.034;2022-12-18T02:02:32;35.33;;;20.60;;
31596;SDS011;18201;50.978;7.034;2022-12-18T02:03:04;33.63;;;21.05;;
31596;SDS011;18201;50.978;7.034;2022-12-18T02:03:35;35.92;;;21.88;;
31596;SDS011;18201;50.978;7.034;2022-12-18T02:04:19;33.08;;;20.98;;
31596;SDS011;18201;50.978;7.034;2022-12-18T02:04:52;32.53;;;21.48;;
31596;SDS011;18201;50.978;7.034;2022-12-18T02:05:26;32.95;;;19.38;;
31596;SDS011;18201;50.978;7.034;2022-12-18T02:06:09;35.00;;;20.73;;
31596;SDS011;18201;50.978;7.034;2022-12-18T02:06:46;34.25;;;20.52;;
31596;SDS011;18201;50.978;7.034;2022-12-18T02:07:26;33.42;;;21.00;;
31596;SDS011;18201;50.978;7.034;2022-12-18T02:08:07;34.13;;;19.92;;
31596;SDS011;18201;50.978;7.034;2022-12-18T02:08:43;33.22;;;19.33;;
31596;SDS011;18201;50.978;7.034;2022-12-18T02:09:24;34.85;;;21.55;;
31596;SDS011;18201;50.978;7.034;2022-12-18T02:10:02;33.20;;;21.10;;
31596;SDS011;18201;50.978;7.034;2022-12-18T02:10:39;31.08;;;21.27;;
31596;SDS011;18201;50.978;7.034;2022-12-18T02:11:18;31.48;;;20.55;;
31596;SDS011;18201;50.978;7.034;2022-12-18T02:11:59;29.92;;;21.13;;
31596;SDS011;18201;50.978;7.034;2022-12-18T02:12:38;31.15;;;21.27;;
31596;SDS011;18201;50.978;7.034;2022-12-18T02:13:14;36.50;;;21.30;;
31596;SDS011;18201;50.978;7.034;2022-12-18T02:13:53;35.97;;;22.63;;
31596;SDS011;18201;50.978;7.034;2022-12-18T02:15:07;33.33;;;20.55;;
31596;SDS011;18201;50.978;7.034;2022-12-18T02:15:47;32.85;;;19.50;;
31596;SDS011;18201;50.978;7.034;2022-12-18T02:16:27;36.53;;;21.02;;
31596;SDS011;18201;50.978;7.034;2022-12-18T02:17:03;34.10;;;21.38;;
31596;SDS011;18201;50.978;7.034;2022-12-18T02:17:40;35.08;;;20.83;;
31596;SDS011;18201;50.978;7.034;2022-12-18T02:18:16;34.85;;;22.42;;
31596;SDS011;18201;50.978;7.034;2022-12-18T02:18:53;32.88;;;20.90;;
31596;SDS011;18201;50.978;7.034;2022-12-18T02:20:27;35.03;;;20.75;;
31596;SDS011;18201;50.978;7.034;2022-12-18T02:21:05;38.58;;;21.77;;
31596;SDS011;18201;50.978;7.034;2022-12-18T02:21:45;30.02;;;19.67;;
31596;SDS011;18201;50.978;7.034;2022-12-18T02:22:24;33.55;;;20.83;;
31596;SDS011;18201;50.978;7.034;2022-12-18T02:23:04;37.35;;;21.42;;
31596;SDS011;18201;50.978;7.034;2022-12-18T02:23:43;31.95;;;20.67;;
31596;SDS011;18201;50.978;7.034;2022-12-18T02:24:24;32.47;;;20.45;;
31596;SDS011;18201;50.978;7.034;2022-12-18T02:25:11;31.83;;;19.92;;
31596;SDS011;18201;50.978;7.034;2022-12-18T02:26:02;30.70;;;20.10;;
31596;SDS011;18201;50.978;7.034;2022-12-18T02:26:40;34.38;;;19.90;;
31596;SDS011;18201;50.978;7.034;2022-12-18T02:27:16;32.95;;;20.83;;
31596;SDS011;18201;50.978;7.034;2022-12-18T02:27:48;33.83;;;21.17;;
31596;SDS011;18201;50.978;7.034;2022-12-18T02:28:21;34.28;;;22.52;;
31596;SDS011;18201;50.978;7.034;2022-12-18T02:28:58;37.63;;;22.55;;
31596;SDS011;18201;50.978;7.034;2022-12-18T02:29:35;34.72;;;21.67;;
31596;SDS011;18201;50.978;7.034;2022-12-18T02:30:09;34.13;;;21.60;;
31596;SDS011;18201;50.978;7.034;2022-12-18T02:30:42;32.20;;;21.63;;
31596;SDS011;18201;50.978;7.034;2022-12-18T02:31:14;36.50;;;21.38;;
31596;SDS011;18201;50.978;7.034;2022-12-18T02:31:49;34.08;;;22.20;;
31596;SDS011;18201;50.978;7.034;2022-12-18T02:32:24;33.85;;;21.67;;
31596;SDS011;18201;50.978;7.034;2022-12-18T02:32:57;34.10;;;21.95;;
31596;SDS011;18201;50.978;7.034;2022-12-18T02:33:31;34.47;;;21.58;;
31596;SDS011;18201;50.978;7.034;2022-12-18T02:34:06;36.10;;;24.08;;
31596;SDS011;18201;50.978;7.034;2022-12-18T02:34:39;36.03;;;22.85;;
31596;SDS011;18201;50.978;7.034;2022-12-18T02:35:12;32.22;;;21.90;;
31596;SDS011;18201;50.978;7.034;2022-12-18T02:35:46;37.70;;;22.98;;
31596;SDS011;18201;50.978;7.034;2022-12-18T02:36:19;35.92;;;22.27;;
31596;SDS011;18201;50.978;7.034;2022-12-18T02:36:53;33.15;;;21.20;;
31596;SDS011;18201;50.978;7.034;2022-12-18T02:37:25;37.20;;;23.83;;
31596;SDS011;18201;50.978;7.034;2022-12-18T02:37:59;35.05;;;24.15;;
31596;SDS011;18201;50.978;7.034;2022-12-18T02:38:30;34.88;;;22.92;;
31596;SDS011;18201;50.978;7.034;2022-12-18T02:39:02;35.22;;;21.65;;
31596;SDS011;18201;50.978;7.034;2022-12-18T02:39:36;35.15;;;22.55;;
31596;SDS011;18201;50.978;7.034;2022-12-18T02:40:09;37.15;;;22.05;;
31596;SDS011;18201;50.978;7.034;2022-12-18T02:40:42;31.35;;;20.88;;
31596;SDS011;18201;50.978;7.034;2022-12-18T02:41:16;29.55;;;20.10;;
31596;SDS011;18201;50.978;7.034;2022-12-18T02:41:49;29.67;;;20.45;;
31596;SDS011;18201;50.978;7.034;2022-12-18T02:42:21;30.08;;;20.70;;
31596;SDS011;18201;50.978;7.034;2022-12-18T02:42:54;33.78;;;21.52;;
31596;SDS011;18201;50.978;7.034;2022-12-18T02:43:25;32.25;;;21.30;;
31596;SDS011;18201;50.978;7.034;2022-12-18T02:43:56;35.30;;;21.80;;
31596;SDS011;18201;50.978;7.034;2022-12-18T02:44:29;31.30;;;19.83;;
31596;SDS011;18201;50.978;7.034;2022-12-18T02:45:00;30.40;;;20.40;;
31596;SDS011;18201;50.978;7.034;2022-12-18T02:45:31;33.17;;;22.40;;
31596;SDS011;18201;50.978;7.034;2022-12-18T02:46:56;32.88;;;19.88;;
31596;SDS011;18201;50.978;7.034;2022-12-18T02:47:27;33.60;;;21.75;;
31596;SDS011;18201;50.978;7.034;2022-12-18T02:48:02;33.22;;;21.48;;
31596;SDS011;18201;50.978;7.034;2022-12-18T02:48:34;35.70;;;21.50;;
31596;SDS011;18201;50.978;7.034;2022-12-18T02:49:14;31.98;;;20.20;;
31596;SDS011;18201;50.978;7.034;2022-12-18T02:50:04;32.45;;;21.33;;
31596;SDS011;18201;50.978;7.034;2022-12-18T02:50:41;33.22;;;20.42;;
31596;SDS011;18201;50.978;7.034;2022-12-18T02:51:17;32.85;;;20.90;;
31596;SDS011;18201;50.978;7.034;2022-12-18T02:51:55;33.30;;;21.13;;
31596;SDS011;18201;50.978;7.034;2022-12-18T02:52:31;30.30;;;19.58;;
31596;SDS011;18201;50.978;7.034;2022-12-18T02:53:10;27.90;;;19.33;;
31596;SDS011;18201;50.978;7.034;2022-12-18T02:53:49;31.45;;;20.63;;
31596;SDS011;18201;50.978;7.034;2022-12-18T02:54:32;32.85;;;20.15;;
31596;SDS011;18201;50.978;7.034;2022-12-18T02:55:13;36.83;;;20.45;;
31596;SDS011;18201;50.978;7.034;2022-12-18T02:55:58;34.40;;;20.17;;
31596;SDS011;18201;50.978;7.034;2022-12-18T02:56:36;29.77;;;20.25;;
31596;SDS011;18201;50.978;7.034;2022-12-18T02:57:14;34.00;;;19.77;;
31596;SDS011;18201;50.978;7.034;2022-12-18T02:57:52;32.80;;;20.15;;
31596;SDS011;18201;50.978;7.034;2022-12-18T02:58:27;35.10;;;19.48;;
31596;SDS011;18201;50.978;7.034;2022-12-18T02:59:05;29.95;;;20.33;;
31596;SDS011;18201;50.978;7.034;2022-12-18T02:59:45;35.50;;;21.63;;
31596;SDS011;18201;50.978;7.034;2022-12-18T03:00:25;29.38;;;19.58;;
31596;SDS011;18201;50.978;7.034;2022-12-18T03:01:01;32.47;;;19.60;;
31596;SDS011;18201;50.978;7.034;2022-12-18T03:01:40;32.80;;;20.38;;
31596;SDS011;18201;50.978;7.034;2022-12-18T03:02:21;32.20;;;21.27;;
31596;SDS011;18201;50.978;7.034;2022-12-18T03:02:57;34.10;;;20.40;;
31596;SDS011;18201;50.978;7.034;2022-12-18T03:03:33;35.45;;;21.60;;
31596;SDS011;18201;50.978;7.034;2022-12-18T03:04:09;34.78;;;21.65;;
31596;SDS011;18201;50.978;7.034;2022-12-18T03:04:44;41.65;;;23.42;;
31596;SDS011;18201;50.978;7.034;2022-12-18T03:05:20;40.88;;;24.33;;
31596;SDS011;18201;50.978;7.034;2022-12-18T03:05:56;43.50;;;25.17;;
31596;SDS011;18201;50.978;7.034;2022-12-18T03:06:32;60.05;;;30.15;;
31596;SDS011;18201;50.978;7.034;2022-12-18T03:07:08;56.60;;;28.90;;
31596;SDS011;18201;50.978;7.034;2022-12-18T03:07:44;54.05;;;27.40;;
31596;SDS011;18201;50.978;7.034;2022-12-18T03:08:22;52.60;;;27.77;;
31596;SDS011;18201;50.978;7.034;2022-12-18T03:08:56;47.47;;;26.52;;
31596;SDS011;18201;50.978;7.034;2022-12-18T03:09:32;49.00;;;26.38;;
31596;SDS011;18201;50.978;7.034;2022-12-18T03:10:07;48.72;;;25.98;;
31596;SDS011;18201;50.978;7.034;2022-12-18T03:10:41;44.38;;;25.75;;
31596;SDS011;18201;50.978;7.034;2022-12-18T03:11:21;47.42;;;24.10;;
31596;SDS011;18201;50.978;7.034;2022-12-18T03:12:12;46.78;;;24.20;;
31596;SDS011;18201;50.978;7.034;2022-12-18T03:12:56;43.67;;;24.38;;
31596;SDS011;18201;50.978;7.034;2022-12-18T03:14:07;37.40;;;21.45;;
31596;SDS011;18201;50.978;7.034;2022-12-18T03:14:39;39.78;;;22.02;;
31596;SDS011;18201;50.978;7.034;2022-12-18T03:15:12;37.95;;;21.88;;
31596;SDS011;18201;50.978;7.034;2022-12-18T03:15:49;40.53;;;22.63;;
31596;SDS011;18201;50.978;7.034;2022-12-18T03:16:24;35.20;;;21.67;;
31596;SDS011;18201;50.978;7.034;2022-12-18T03:16:58;40.08;;;22.00;;
31596;SDS011;18201;50.978;7.034;2022-12-18T03:17:32;38.00;;;22.92;;
31596;SDS011;18201;50.978;7.034;2022-12-18T03:18:08;35.15;;;20.83;;
31596;SDS011;18201;50.978;7.034;2022-12-18T03:18:44;42.10;;;21.92;;
31596;SDS011;18201;50.978;7.034;2022-12-18T03:19:18;37.13;;;20.38;;
31596;SDS011;18201;50.978;7.034;2022-12-18T03:19:52;36.35;;;20.80;;
31596;SDS011;18201;50.978;7.034;2022-12-18T03:20:27;30.77;;;18.67;;
31596;SDS011;18201;50.978;7.034;2022-12-18T03:21:02;37.38;;;21.67;;
31596;SDS011;18201;50.978;7.034;2022-12-18T03:21:39;33.45;;;20.40;;